createdAt,value
2023-01-08T00:04:56.708Z,100415.27
2023-01-08T00:19:59.775Z,100393.66
2023-01-08T00:35:03.192Z,100378.35
2023-01-08T00:50:06.712Z,100367.52
2023-01-08T01:05:13.564Z,100365.10
2023-01-08T01:20:17.056Z,100370.59
2023-01-08T01:35:20.156Z,100372.13
2023-01-08T01:50:30.734Z,100364.45
2023-01-08T02:05:52.203Z,100338.02
2023-01-08T02:21:03.281Z,100320.30
2023-01-08T02:36:34.409Z,100300.73
2023-01-08T02:51:43.176Z,100286.05
2023-01-08T03:06:46.801Z,100274.58
2023-01-08T03:21:52.080Z,100266.30
2023-01-08T03:36:59.074Z,100251.30
2023-01-08T03:52:02.216Z,100247.46
2023-01-08T04:07:05.431Z,100232.98
2023-01-08T04:22:11.299Z,100233.47
2023-01-08T04:37:14.688Z,100219.39
2023-01-08T04:52:17.944Z,100200.45
2023-01-08T05:07:24.856Z,100184.66
2023-01-08T05:22:28.035Z,100166.05
2023-01-08T05:37:31.181Z,100160.02
2023-01-08T05:52:34.450Z,100150.46
2023-01-08T06:07:38.926Z,100136.77
2023-01-08T06:22:43.740Z,100145.48
2023-01-08T06:37:46.993Z,100125.16
2023-01-08T06:52:54.758Z,100118.61
2023-01-08T07:07:57.982Z,100102.83
2023-01-08T07:23:06.108Z,100076.90
2023-01-08T07:38:09.279Z,100081.48
2023-01-08T07:53:14.095Z,100094.42
2023-01-08T08:08:17.694Z,100087.55
2023-01-08T08:39:09.895Z,100077.13
2023-01-08T08:54:13.175Z,100074.73
2023-01-08T09:09:16.433Z,100079.13
2023-01-08T09:24:19.901Z,100063.52
2023-01-08T09:39:23.240Z,100046.43
2023-01-08T09:54:26.911Z,100021.11
2023-01-08T10:09:32.861Z,100010.23
2023-01-08T10:24:37.939Z,99984.26
2023-01-08T10:39:47.341Z,99957.53
2023-01-08T10:54:51.864Z,99938.08
2023-01-08T11:09:55.667Z,99936.98
2023-01-08T11:24:58.896Z,99931.23
2023-01-08T11:40:03.014Z,99929.02
2023-01-08T11:55:48.282Z,99918.33
2023-01-08T12:11:14.409Z,99917.80
2023-01-08T12:26:26.556Z,99882.76
2023-01-08T12:41:35.473Z,99864.80
2023-01-08T12:56:55.014Z,99857.86
2023-01-08T13:12:01.705Z,99843.09
2023-01-08T13:27:17.306Z,99813.29
2023-01-08T13:42:29.206Z,99817.91
2023-01-08T13:57:44.365Z,99826.79
2023-01-08T14:12:49.511Z,99821.23
2023-01-08T14:28:03.983Z,99812.98
2023-01-08T14:43:11.714Z,99788.33
2023-01-08T14:58:18.852Z,99773.08
2023-01-08T15:13:24.273Z,99754.09
2023-01-08T15:28:27.687Z,99741.11
2023-01-08T15:43:31.049Z,99744.40
2023-01-08T15:58:34.417Z,99760.27
2023-01-08T16:13:38.063Z,99752.29
2023-01-08T16:28:41.946Z,99746.11
2023-01-08T16:43:45.565Z,99751.02
2023-01-08T16:58:52.389Z,99740.77
2023-01-08T17:13:55.835Z,99718.61
2023-01-08T17:28:59.427Z,99711.52
2023-01-08T17:44:03.909Z,99689.04
2023-01-08T17:59:07.610Z,99652.89
2023-01-08T18:14:13.491Z,99659.09
2023-01-08T18:29:16.855Z,99685.89
2023-01-08T18:44:20.196Z,99676.25
2023-01-08T18:59:24.741Z,99664.83
2023-01-08T19:14:28.273Z,99664.73
2023-01-08T19:29:31.840Z,99672.33
2023-01-08T19:44:35.573Z,99651.64
2023-01-08T19:59:45.493Z,99622.91
2023-01-08T20:15:09.373Z,99600.67
2023-01-08T20:35:55.072Z,99606.77
2023-01-08T20:51:07.593Z,99581.80
2023-01-08T21:06:30.138Z,99571.36
2023-01-08T21:21:34.632Z,99554.11
2023-01-08T21:41:02.000Z,99524.17
2023-01-08T21:56:21.879Z,99514.08
2023-01-08T22:11:33.593Z,99512.80
2023-01-08T22:26:39.229Z,99502.16
2023-01-08T22:41:44.551Z,99481.80
2023-01-08T22:56:48.098Z,99444.20
2023-01-08T23:11:51.266Z,99403.90
2023-01-08T23:26:57.502Z,99356.63
2023-01-08T23:42:00.909Z,99358.88
2023-01-08T23:57:06.346Z,99355.90
